sensor_id;sensor_type;location;lat;lon;timestamp;P1;P2;P0
46591;PMS6003;32314;48.748;9.656;2023-04-15T00:02:23;3.00;3.00;1.50
46591;PMS6003;32314;48.748;9.656;2023-04-15T00:05:08;12.00;3.50;3.00
46591;PMS6003;32314;48.748;9.656;2023-04-15T00:07:55;1.00;1.00;1.00
46591;PMS6003;32314;48.748;9.656;2023-04-15T00:10:41;4.00;3.00;1.00
46591;PMS6003;32314;48.748;9.656;2023-04-15T00:13:28;5.00;2.00;1.00
46591;PMS6003;32314;48.748;9.656;2023-04-15T00:16:14;3.00;3.00;1.00
46591;PMS6003;32314;48.748;9.656;2023-04-15T00:19:08;1.00;1.00;1.00
46591;PMS6003;32314;48.748;9.656;2023-04-15T00:21:54;0.25;0.25;0.25
46591;PMS6003;32314;48.748;9.656;2023-04-15T00:28:48;1.00;1.00;1.00
46591;PMS6003;32314;48.748;9.656;2023-04-15T00:31:34;1.00;1.00;1.00
46591;PMS6003;32314;48.748;9.656;2023-04-15T00:34:22;0.00;0.00;0.00
46591;PMS6003;32314;48.748;9.656;2023-04-15T00:37:10;3.75;1.50;1.00
46591;PMS6003;32314;48.748;9.656;2023-04-15T00:39:56;2.00;2.00;1.00
46591;PMS6003;32314;48.748;9.656;2023-04-15T00:42:42;2.00;2.00;1.00
46591;PMS6003;32314;48.748;9.656;2023-04-15T00:45:30;1.00;1.00;1.00
46591;PMS6003;32314;48.748;9.656;2023-04-15T00:48:16;1.50;1.00;0.75
46591;PMS6003;32314;48.748;9.656;2023-04-15T00:51:02;3.00;0.25;0.00
46591;PMS6003;32314;48.748;9.656;2023-04-15T00:53:48;1.00;1.00;1.00
46591;PMS6003;32314;48.748;9.656;2023-04-15T00:56:34;1.75;0.50;0.25
46591;PMS6003;32314;48.748;9.656;2023-04-15T00:59:22;1.00;1.00;1.00
46591;PMS6003;32314;48.748;9.656;2023-04-15T01:02:09;0.00;0.00;0.00
46591;PMS6003;32314;48.748;9.656;2023-04-15T01:04:56;1.00;1.00;0.50
46591;PMS6003;32314;48.748;9.656;2023-04-15T01:07:42;1.00;1.00;1.00
46591;PMS6003;32314;48.748;9.656;2023-04-15T01:10:27;3.50;1.00;1.00
46591;PMS6003;32314;48.748;9.656;2023-04-15T01:13:16;2.00;2.00;1.00
46591;PMS6003;32314;48.748;9.656;2023-04-15T01:16:02;3.25;0.75;0.75
46591;PMS6003;32314;48.748;9.656;2023-04-15T01:21:48;2.50;2.50;1.00
46591;PMS6003;32314;48.748;9.656;2023-04-15T01:24:34;3.75;1.00;1.00
46591;PMS6003;32314;48.748;9.656;2023-04-15T01:27:20;0.00;0.00;0.00
46591;PMS6003;32314;48.748;9.656;2023-04-15T01:30:10;1.00;1.00;1.00
46591;PMS6003;32314;48.748;9.656;2023-04-15T01:32:56;0.00;0.00;0.00
46591;PMS6003;32314;48.748;9.656;2023-04-15T01:35:43;1.50;0.25;0.25
46591;PMS6003;32314;48.748;9.656;2023-04-15T01:38:29;2.25;0.00;0.00
46591;PMS6003;32314;48.748;9.656;2023-04-15T01:41:15;1.50;1.50;1.00
46591;PMS6003;32314;48.748;9.656;2023-04-15T01:44:07;0.00;0.00;0.00
46591;PMS6003;32314;48.748;9.656;2023-04-15T01:46:53;0.50;0.50;0.50
46591;PMS6003;32314;48.748;9.656;2023-04-15T01:49:42;1.00;1.00;1.00
46591;PMS6003;32314;48.748;9.656;2023-04-15T01:52:28;2.00;1.00;1.00
46591;PMS6003;32314;48.748;9.656;2023-04-15T01:55:15;0.00;0.00;0.00
46591;PMS6003;32314;48.748;9.656;2023-04-15T01:58:02;3.00;3.00;1.00
46591;PMS6003;32314;48.748;9.656;2023-04-15T02:00:48;3.00;0.00;0.00
46591;PMS6003;32314;48.748;9.656;2023-04-15T02:03:33;0.75;0.75;0.75
46591;PMS6003;32314;48.748;9.656;2023-04-15T02:06:19;3.00;3.00;3.00
46591;PMS6003;32314;48.748;9.656;2023-04-15T02:09:07;0.25;0.25;0.25
46591;PMS6003;32314;48.748;9.656;2023-04-15T02:11:52;0.00;0.00;0.00
46591;PMS6003;32314;48.748;9.656;2023-04-15T02:14:41;1.00;1.00;1.00
46591;PMS6003;32314;48.748;9.656;2023-04-15T02:17:29;1.00;1.00;1.00
46591;PMS6003;32314;48.748;9.656;2023-04-15T02:20:17;0.00;0.00;0.00
46591;PMS6003;32314;48.748;9.656;2023-04-15T02:23:03;0.75;0.75;0.75
46591;PMS6003;32314;48.748;9.656;2023-04-15T02:25:51;1.00;1.00;1.00
46591;PMS6003;32314;48.748;9.656;2023-04-15T02:28:37;1.00;1.00;1.00
46591;PMS6003;32314;48.748;9.656;2023-04-15T02:31:23;0.75;0.75;0.00
46591;PMS6003;32314;48.748;9.656;2023-04-15T02:34:11;0.50;0.50;0.25
46591;PMS6003;32314;48.748;9.656;2023-04-15T02:37:01;3.00;3.00;2.50
46591;PMS6003;32314;48.748;9.656;2023-04-15T02:39:48;3.25;3.25;3.00
46591;PMS6003;32314;48.748;9.656;2023-04-15T02:42:34;0.50;0.25;0.25
46591;PMS6003;32314;48.748;9.656;2023-04-15T02:45:21;0.00;0.00;0.00
46591;PMS6003;32314;48.748;9.656;2023-04-15T02:48:11;0.00;0.00;0.00
46591;PMS6003;32314;48.748;9.656;2023-04-15T02:54:04;0.00;0.00;0.00
46591;PMS6003;32314;48.748;9.656;2023-04-15T02:56:50;0.50;0.50;0.50
46591;PMS6003;32314;48.748;9.656;2023-04-15T02:59:39;1.00;1.00;1.00
46591;PMS6003;32314;48.748;9.656;2023-04-15T03:02:32;1.50;0.00;0.00
46591;PMS6003;32314;48.748;9.656;2023-04-15T03:05:20;0.25;0.25;0.00
46591;PMS6003;32314;48.748;9.656;2023-04-15T03:08:09;0.00;0.00;0.00
46591;PMS6003;32314;48.748;9.656;2023-04-15T03:10:55;2.50;1.00;1.00
46591;PMS6003;32314;48.748;9.656;2023-04-15T03:13:46;0.00;0.00;0.00
46591;PMS6003;32314;48.748;9.656;2023-04-15T03:16:45;0.25;0.25;0.00
46591;PMS6003;32314;48.748;9.656;2023-04-15T03:19:34;0.00;0.00;0.00
46591;PMS6003;32314;48.748;9.656;2023-04-15T03:22:21;1.75;1.00;1.00
46591;PMS6003;32314;48.748;9.656;2023-04-15T03:25:07;0.00;0.00;0.00
46591;PMS6003;32314;48.748;9.656;2023-04-15T03:27:56;4.00;1.50;1.50
46591;PMS6003;32314;48.748;9.656;2023-04-15T03:30:42;2.25;1.00;1.00
46591;PMS6003;32314;48.748;9.656;2023-04-15T03:33:28;0.75;0.75;0.75
46591;PMS6003;32314;48.748;9.656;2023-04-15T03:36:15;1.50;1.00;1.00
46591;PMS6003;32314;48.748;9.656;2023-04-15T03:39:01;0.00;0.00;0.00
46591;PMS6003;32314;48.748;9.656;2023-04-15T03:41:47;3.00;1.00;0.00
46591;PMS6003;32314;48.748;9.656;2023-04-15T03:44:33;0.75;0.75;0.00
46591;PMS6003;32314;48.748;9.656;2023-04-15T03:47:19;1.00;1.00;1.00
46591;PMS6003;32314;48.748;9.656;2023-04-15T03:50:08;0.75;0.75;0.75
46591;PMS6003;32314;48.748;9.656;2023-04-15T03:52:57;1.00;1.00;0.50
46591;PMS6003;32314;48.748;9.656;2023-04-15T03:55:47;0.25;0.25;0.25
46591;PMS6003;32314;48.748;9.656;2023-04-15T03:58:36;1.00;1.00;0.50
46591;PMS6003;32314;48.748;9.656;2023-04-15T04:01:22;0.50;0.50;0.50
46591;PMS6003;32314;48.748;9.656;2023-04-15T04:04:07;0.00;0.00;0.00
46591;PMS6003;32314;48.748;9.656;2023-04-15T04:06:53;0.25;0.25;0.25
46591;PMS6003;32314;48.748;9.656;2023-04-15T04:09:39;0.00;0.00;0.00
46591;PMS6003;32314;48.748;9.656;2023-04-15T04:12:26;0.75;0.75;0.75
46591;PMS6003;32314;48.748;9.656;2023-04-15T04:15:12;1.00;1.00;1.00
46591;PMS6003;32314;48.748;9.656;2023-04-15T04:20:48;3.00;3.00;1.00
46591;PMS6003;32314;48.748;9.656;2023-04-15T04:23:33;0.75;0.75;0.50
46591;PMS6003;32314;48.748;9.656;2023-04-15T04:26:19;1.00;1.00;1.00
46591;PMS6003;32314;48.748;9.656;2023-04-15T04:29:05;0.50;0.50;0.25
46591;PMS6003;32314;48.748;9.656;2023-04-15T04:31:51;1.00;1.00;1.00
46591;PMS6003;32314;48.748;9.656;2023-04-15T04:34:37;4.00;3.00;3.00
46591;PMS6003;32314;48.748;9.656;2023-04-15T04:37:23;0.50;0.50;0.00
46591;PMS6003;32314;48.748;9.656;2023-04-15T04:40:09;1.00;1.00;1.00
46591;PMS6003;32314;48.748;9.656;2023-04-15T04:42:55;1.00;1.00;1.00
46591;PMS6003;32314;48.748;9.656;2023-04-15T04:45:41;3.00;3.00;3.00
46591;PMS6003;32314;48.748;9.656;2023-04-15T04:48:27;3.00;1.00;1.00
46591;PMS6003;32314;48.748;9.656;2023-04-15T04:51:13;1.00;1.00;0.75
46591;PMS6003;32314;48.748;9.656;2023-04-15T04:53:59;3.00;3.00;3.00
46591;PMS6003;32314;48.748;9.656;2023-04-15T04:56:45;5.00;1.50;1.00
46591;PMS6003;32314;48.748;9.656;2023-04-15T04:59:31;3.50;3.50;3.00
46591;PMS6003;32314;48.748;9.656;2023-04-15T05:02:17;3.00;3.00;3.00
46591;PMS6003;32314;48.748;9.656;2023-04-15T05:05:03;3.25;3.00;1.50
46591;PMS6003;32314;48.748;9.656;2023-04-15T05:07:49;0.75;0.75;0.75
46591;PMS6003;32314;48.748;9.656;2023-04-15T05:10:35;1.50;1.50;1.50
46591;PMS6003;32314;48.748;9.656;2023-04-15T05:13:21;2.50;1.50;1.00
46591;PMS6003;32314;48.748;9.656;2023-04-15T05:16:07;1.50;1.50;1.00
46591;PMS6003;32314;48.748;9.656;2023-04-15T05:18:53;3.75;3.00;3.00
46591;PMS6003;32314;48.748;9.656;2023-04-15T05:21:39;12.50;10.00;8.50
46591;PMS6003;32314;48.748;9.656;2023-04-15T05:24:25;12.25;8.50;6.50
46591;PMS6003;32314;48.748;9.656;2023-04-15T05:27:11;6.25;6.25;5.00
46591;PMS6003;32314;48.748;9.656;2023-04-15T05:29:57;6.00;6.00;5.50
46591;PMS6003;32314;48.748;9.656;2023-04-15T05:32:43;7.75;4.00;4.00
46591;PMS6003;32314;48.748;9.656;2023-04-15T05:35:29;1.50;1.50;1.00
46591;PMS6003;32314;48.748;9.656;2023-04-15T05:38:15;3.75;3.75;2.50
46591;PMS6003;32314;48.748;9.656;2023-04-15T05:41:00;1.00;1.00;1.00
46591;PMS6003;32314;48.748;9.656;2023-04-15T05:43:46;4.00;4.00;3.25
46591;PMS6003;32314;48.748;9.656;2023-04-15T05:46:32;7.00;4.00;3.25
46591;PMS6003;32314;48.748;9.656;2023-04-15T05:49:18;6.00;6.00;4.00
46591;PMS6003;32314;48.748;9.656;2023-04-15T05:52:04;5.50;3.00;2.50
46591;PMS6003;32314;48.748;9.656;2023-04-15T05:54:50;5.50;3.00;3.00
46591;PMS6003;32314;48.748;9.656;2023-04-15T05:57:36;4.50;3.50;3.00
46591;PMS6003;32314;48.748;9.656;2023-04-15T06:00:22;4.00;4.00;3.25
46591;PMS6003;32314;48.748;9.656;2023-04-15T06:03:11;7.00;4.00;4.00
46591;PMS6003;32314;48.748;9.656;2023-04-15T06:05:57;4.00;4.00;3.00
46591;PMS6003;32314;48.748;9.656;2023-04-15T06:08:43;6.67;5.33;3.67
46591;PMS6003;32314;48.748;9.656;2023-04-15T06:11:29;6.00;6.00;4.67
46591;PMS6003;32314;48.748;9.656;2023-04-15T06:14:18;10.33;10.33;8.67
46591;PMS6003;32314;48.748;9.656;2023-04-15T06:17:05;7.00;6.33;4.00
46591;PMS6003;32314;48.748;9.656;2023-04-15T06:19:51;6.00;6.00;3.67
46591;PMS6003;32314;48.748;9.656;2023-04-15T06:22:42;12.67;11.00;8.67
46591;PMS6003;32314;48.748;9.656;2023-04-15T06:25:29;13.33;11.67;9.00
46591;PMS6003;32314;48.748;9.656;2023-04-15T06:28:15;10.67;8.67;7.00
46591;PMS6003;32314;48.748;9.656;2023-04-15T06:31:01;50.67;43.00;28.00
46591;PMS6003;32314;48.748;9.656;2023-04-15T06:33:48;11.33;9.67;7.00
46591;PMS6003;32314;48.748;9.656;2023-04-15T06:36:34;9.00;9.00;6.00
46591;PMS6003;32314;48.748;9.656;2023-04-15T06:39:20;7.00;7.00;4.67
46591;PMS6003;32314;48.748;9.656;2023-04-15T06:42:07;4.00;4.00;4.00
46591;PMS6003;32314;48.748;9.656;2023-04-15T06:44:54;6.00;6.00;4.67
46591;PMS6003;32314;48.748;9.656;2023-04-15T06:47:40;4.00;2.33;1.67
46591;PMS6003;32314;48.748;9.656;2023-04-15T06:50:31;6.00;6.00;6.00
46591;PMS6003;32314;48.748;9.656;2023-04-15T06:53:17;6.33;6.33;4.67
46591;PMS6003;32314;48.748;9.656;2023-04-15T06:56:09;3.33;3.33;3.00
46591;PMS6003;32314;48.748;9.656;2023-04-15T06:58:56;7.00;7.00;6.00
46591;PMS6003;32314;48.748;9.656;2023-04-15T07:08:39;10.00;8.00;7.00
46591;PMS6003;32314;48.748;9.656;2023-04-15T07:11:30;12.00;8.75;6.25
46591;PMS6003;32314;48.748;9.656;2023-04-15T07:14:28;13.00;11.25;8.00
46591;PMS6003;32314;48.748;9.656;2023-04-15T07:17:25;10.00;10.00;9.00
46591;PMS6003;32314;48.748;9.656;2023-04-15T07:20:20;12.00;8.75;6.00
46591;PMS6003;32314;48.748;9.656;2023-04-15T07:23:43;7.50;7.50;6.00
46591;PMS6003;32314;48.748;9.656;2023-04-15T07:26:40;9.00;9.00;7.50
46591;PMS6003;32314;48.748;9.656;2023-04-15T07:29:43;6.00;6.00;5.00
46591;PMS6003;32314;48.748;9.656;2023-04-15T07:32:45;5.75;5.75;5.00
46591;PMS6003;32314;48.748;9.656;2023-04-15T07:35:44;7.00;7.00;6.00
46591;PMS6003;32314;48.748;9.656;2023-04-15T07:38:36;9.75;6.75;6.00
46591;PMS6003;32314;48.748;9.656;2023-04-15T07:41:40;8.50;8.50;6.50
46591;PMS6003;32314;48.748;9.656;2023-04-15T07:44:41;7.00;7.00;6.00
46591;PMS6003;32314;48.748;9.656;2023-04-15T07:47:51;7.75;7.75;6.75
46591;PMS6003;32314;48.748;9.656;2023-04-15T07:56:43;5.25;5.25;5.00
46591;PMS6003;32314;48.748;9.656;2023-04-15T07:59:59;6.00;6.00;5.00
46591;PMS6003;32314;48.748;9.656;2023-04-15T08:06:50;6.50;6.50;5.25
46591;PMS6003;32314;48.748;9.656;2023-04-15T08:21:06;3.75;3.75;3.75
46591;PMS6003;32314;48.748;9.656;2023-04-15T08:24:08;8.00;6.75;5.00
46591;PMS6003;32314;48.748;9.656;2023-04-15T08:26:53;6.75;6.75;5.50
46591;PMS6003;32314;48.748;9.656;2023-04-15T08:29:52;8.25;7.25;6.50
46591;PMS6003;32314;48.748;9.656;2023-04-15T08:35:54;6.25;6.25;5.00
46591;PMS6003;32314;48.748;9.656;2023-04-15T08:38:52;7.50;6.00;5.00
46591;PMS6003;32314;48.748;9.656;2023-04-15T08:41:48;7.00;7.00;6.00
46591;PMS6003;32314;48.748;9.656;2023-04-15T08:44:59;8.25;8.25;7.25
46591;PMS6003;32314;48.748;9.656;2023-04-15T08:47:54;6.50;6.50;5.75
46591;PMS6003;32314;48.748;9.656;2023-04-15T08:50:45;12.00;9.75;8.00
46591;PMS6003;32314;48.748;9.656;2023-04-15T08:53:39;6.25;6.25;5.50
46591;PMS6003;32314;48.748;9.656;2023-04-15T08:56:35;5.00;5.00;4.25
46591;PMS6003;32314;48.748;9.656;2023-04-15T08:59:35;7.50;7.50;6.00
46591;PMS6003;32314;48.748;9.656;2023-04-15T09:05:11;9.75;7.75;6.75
46591;PMS6003;32314;48.748;9.656;2023-04-15T09:08:07;7.00;7.00;5.50
46591;PMS6003;32314;48.748;9.656;2023-04-15T09:11:07;6.25;6.25;6.00
46591;PMS6003;32314;48.748;9.656;2023-04-15T09:14:02;9.25;8.25;6.00
46591;PMS6003;32314;48.748;9.656;2023-04-15T09:17:20;7.50;7.50;6.00
46591;PMS6003;32314;48.748;9.656;2023-04-15T09:20:45;6.50;6.50;5.00
46591;PMS6003;32314;48.748;9.656;2023-04-15T09:23:34;7.00;7.00;6.00
46591;PMS6003;32314;48.748;9.656;2023-04-15T09:26:38;7.25;7.25;6.00
46591;PMS6003;32314;48.748;9.656;2023-04-15T09:41:00;2.75;2.75;2.50
46591;PMS6003;32314;48.748;9.656;2023-04-15T10:40:57;3.75;3.75;3.50
46591;PMS6003;32314;48.748;9.656;2023-04-15T10:47:56;4.00;4.00;4.00
46591;PMS6003;32314;48.748;9.656;2023-04-15T13:37:07;1.00;1.00;1.00
46591;PMS6003;32314;48.748;9.656;2023-04-15T13:51:18;0.25;0.25;0.00
46591;PMS6003;32314;48.748;9.656;2023-04-15T13:54:04;2.00;0.25;0.00
46591;PMS6003;32314;48.748;9.656;2023-04-15T13:56:50;2.00;2.00;2.00
46591;PMS6003;32314;48.748;9.656;2023-04-15T13:59:36;1.00;1.00;1.00
46591;PMS6003;32314;48.748;9.656;2023-04-15T14:02:22;1.00;1.00;1.00
46591;PMS6003;32314;48.748;9.656;2023-04-15T14:05:13;5.50;4.00;3.50
46591;PMS6003;32314;48.748;9.656;2023-04-15T14:08:03;6.00;6.00;5.00
46591;PMS6003;32314;48.748;9.656;2023-04-15T14:10:50;5.50;5.50;5.00
46591;PMS6003;32314;48.748;9.656;2023-04-15T14:13:47;1.00;1.00;1.00
46591;PMS6003;32314;48.748;9.656;2023-04-15T14:16:39;1.50;1.50;1.50
46591;PMS6003;32314;48.748;9.656;2023-04-15T14:19:25;1.00;1.00;1.00
46591;PMS6003;32314;48.748;9.656;2023-04-15T14:22:17;0.00;0.00;0.00
46591;PMS6003;32314;48.748;9.656;2023-04-15T14:25:03;1.00;1.00;1.00
46591;PMS6003;32314;48.748;9.656;2023-04-15T14:27:52;9.00;9.00;7.75
46591;PMS6003;32314;48.748;9.656;2023-04-15T14:30:39;8.25;4.00;3.00
46591;PMS6003;32314;48.748;9.656;2023-04-15T14:33:28;2.00;2.00;2.00
46591;PMS6003;32314;48.748;9.656;2023-04-15T14:36:15;1.00;1.00;1.00
46591;PMS6003;32314;48.748;9.656;2023-04-15T14:39:01;1.00;1.00;1.00
46591;PMS6003;32314;48.748;9.656;2023-04-15T14:41:48;1.00;1.00;0.75
46591;PMS6003;32314;48.748;9.656;2023-04-15T14:44:37;0.00;0.00;0.00
46591;PMS6003;32314;48.748;9.656;2023-04-15T14:47:32;0.00;0.00;0.00
46591;PMS6003;32314;48.748;9.656;2023-04-15T14:50:21;0.00;0.00;0.00
46591;PMS6003;32314;48.748;9.656;2023-04-15T14:53:07;0.00;0.00;0.00
46591;PMS6003;32314;48.748;9.656;2023-04-15T14:55:53;0.00;0.00;0.00
46591;PMS6003;32314;48.748;9.656;2023-04-15T14:58:47;1.00;1.00;1.00
46591;PMS6003;32314;48.748;9.656;2023-04-15T15:01:33;0.25;0.25;0.00
46591;PMS6003;32314;48.748;9.656;2023-04-15T15:04:23;0.00;0.00;0.00
46591;PMS6003;32314;48.748;9.656;2023-04-15T15:07:11;0.00;0.00;0.00
46591;PMS6003;32314;48.748;9.656;2023-04-15T15:09:57;0.00;0.00;0.00
46591;PMS6003;32314;48.748;9.656;2023-04-15T15:12:43;0.00;0.00;0.00
46591;PMS6003;32314;48.748;9.656;2023-04-15T15:15:30;0.50;0.50;0.00
46591;PMS6003;32314;48.748;9.656;2023-04-15T15:18:22;0.00;0.00;0.00
46591;PMS6003;32314;48.748;9.656;2023-04-15T15:21:09;0.25;0.25;0.25
46591;PMS6003;32314;48.748;9.656;2023-04-15T15:23:55;0.50;0.50;0.50
46591;PMS6003;32314;48.748;9.656;2023-04-15T15:26:41;0.00;0.00;0.00
46591;PMS6003;32314;48.748;9.656;2023-04-15T15:29:27;0.00;0.00;0.00
46591;PMS6003;32314;48.748;9.656;2023-04-15T15:32:16;2.00;1.00;1.00
46591;PMS6003;32314;48.748;9.656;2023-04-15T15:35:02;7.75;7.75;5.25
46591;PMS6003;32314;48.748;9.656;2023-04-15T15:37:48;10.25;9.00;7.00
46591;PMS6003;32314;48.748;9.656;2023-04-15T15:40:35;2.00;2.00;2.00
46591;PMS6003;32314;48.748;9.656;2023-04-15T15:43:29;1.00;1.00;1.00
46591;PMS6003;32314;48.748;9.656;2023-04-15T15:46:15;1.00;1.00;1.00
46591;PMS6003;32314;48.748;9.656;2023-04-15T15:49:05;0.50;0.50;0.50
46591;PMS6003;32314;48.748;9.656;2023-04-15T15:51:51;0.00;0.00;0.00
46591;PMS6003;32314;48.748;9.656;2023-04-15T15:54:43;0.75;0.75;0.75
46591;PMS6003;32314;48.748;9.656;2023-04-15T16:00:55;2.00;1.00;1.00
46591;PMS6003;32314;48.748;9.656;2023-04-15T16:03:48;1.00;1.00;1.00
46591;PMS6003;32314;48.748;9.656;2023-04-15T16:06:37;3.00;0.00;0.00
46591;PMS6003;32314;48.748;9.656;2023-04-15T16:09:23;3.00;3.00;3.00
46591;PMS6003;32314;48.748;9.656;2023-04-15T16:12:09;4.33;4.33;4.33
46591;PMS6003;32314;48.748;9.656;2023-04-15T16:15:01;1.00;1.00;1.00
46591;PMS6003;32314;48.748;9.656;2023-04-15T16:17:50;2.00;2.00;2.00
46591;PMS6003;32314;48.748;9.656;2023-04-15T16:20:39;0.00;0.00;0.00
46591;PMS6003;32314;48.748;9.656;2023-04-15T16:23:41;0.00;0.00;0.00
46591;PMS6003;32314;48.748;9.656;2023-04-15T16:26:48;0.00;0.00;0.00
46591;PMS6003;32314;48.748;9.656;2023-04-15T16:29:39;1.00;1.00;0.00
46591;PMS6003;32314;48.748;9.656;2023-04-15T16:32:29;1.00;1.00;1.00
46591;PMS6003;32314;48.748;9.656;2023-04-15T16:35:17;0.00;0.00;0.00
46591;PMS6003;32314;48.748;9.656;2023-04-15T16:38:06;0.00;0.00;0.00
46591;PMS6003;32314;48.748;9.656;2023-04-15T16:40:53;1.00;1.00;1.00
46591;PMS6003;32314;48.748;9.656;2023-04-15T16:43:42;0.00;0.00;0.00
46591;PMS6003;32314;48.748;9.656;2023-04-15T16:46:31;0.00;0.00;0.00
46591;PMS6003;32314;48.748;9.656;2023-04-15T16:49:16;1.00;1.00;0.33
46591;PMS6003;32314;48.748;9.656;2023-04-15T16:52:02;0.00;0.00;0.00
46591;PMS6003;32314;48.748;9.656;2023-04-15T16:54:48;1.00;1.00;0.67
46591;PMS6003;32314;48.748;9.656;2023-04-15T16:57:34;4.00;1.67;1.67
46591;PMS6003;32314;48.748;9.656;2023-04-15T17:00:20;3.33;3.33;3.00
46591;PMS6003;32314;48.748;9.656;2023-04-15T17:03:07;4.00;4.00;3.67
46591;PMS6003;32314;48.748;9.656;2023-04-15T17:05:53;9.00;6.67;5.33
46591;PMS6003;32314;48.748;9.656;2023-04-15T17:08:44;1.00;1.00;0.67
46591;PMS6003;32314;48.748;9.656;2023-04-15T17:11:33;0.00;0.00;0.00
46591;PMS6003;32314;48.748;9.656;2023-04-15T17:14:20;12.00;4.00;4.00
46591;PMS6003;32314;48.748;9.656;2023-04-15T17:17:08;6.00;6.00;4.67
46591;PMS6003;32314;48.748;9.656;2023-04-15T17:19:58;4.00;3.00;3.00
46591;PMS6003;32314;48.748;9.656;2023-04-15T17:22:44;1.00;1.00;0.67
46591;PMS6003;32314;48.748;9.656;2023-04-15T17:25:31;3.00;0.67;0.67
46591;PMS6003;32314;48.748;9.656;2023-04-15T17:28:20;3.00;0.00;0.00
46591;PMS6003;32314;48.748;9.656;2023-04-15T17:31:16;4.00;1.67;1.00
46591;PMS6003;32314;48.748;9.656;2023-04-15T17:34:02;0.00;0.00;0.00
46591;PMS6003;32314;48.748;9.656;2023-04-15T17:36:48;1.00;1.00;1.00
46591;PMS6003;32314;48.748;9.656;2023-04-15T17:39:35;1.00;1.00;1.00
46591;PMS6003;32314;48.748;9.656;2023-04-15T17:42:24;6.33;4.00;3.00
46591;PMS6003;32314;48.748;9.656;2023-04-15T17:45:10;7.00;7.00;6.00
46591;PMS6003;32314;48.748;9.656;2023-04-15T17:47:56;11.33;11.33;9.00
46591;PMS6003;32314;48.748;9.656;2023-04-15T17:50:44;3.00;3.00;3.00
46591;PMS6003;32314;48.748;9.656;2023-04-15T17:53:31;3.00;2.33;1.00
46591;PMS6003;32314;48.748;9.656;2023-04-15T17:56:17;6.67;6.00;5.33
46591;PMS6003;32314;48.748;9.656;2023-04-15T17:59:03;4.00;4.00;3.00
46591;PMS6003;32314;48.748;9.656;2023-04-15T18:01:53;20.33;20.33;14.33
46591;PMS6003;32314;48.748;9.656;2023-04-15T18:04:39;13.00;10.67;9.00
46591;PMS6003;32314;48.748;9.656;2023-04-15T18:07:30;6.67;6.67;6.00
46591;PMS6003;32314;48.748;9.656;2023-04-15T18:10:16;6.67;6.67;4.67
46591;PMS6003;32314;48.748;9.656;2023-04-15T18:13:03;8.00;6.00;5.33
46591;PMS6003;32314;48.748;9.656;2023-04-15T18:15:49;9.00;7.00;6.00
46591;PMS6003;32314;48.748;9.656;2023-04-15T18:18:38;16.67;16.67;12.00
46591;PMS6003;32314;48.748;9.656;2023-04-15T18:21:29;4.00;4.00;4.00
46591;PMS6003;32314;48.748;9.656;2023-04-15T18:24:20;5.00;4.00;3.00
46591;PMS6003;32314;48.748;9.656;2023-04-15T18:27:09;8.33;6.00;6.00
46591;PMS6003;32314;48.748;9.656;2023-04-15T18:30:01;6.00;3.00;3.00
46591;PMS6003;32314;48.748;9.656;2023-04-15T18:32:50;4.00;4.00;4.00
46591;PMS6003;32314;48.748;9.656;2023-04-15T18:35:46;3.00;3.00;1.00
46591;PMS6003;32314;48.748;9.656;2023-04-15T18:38:46;2.33;2.33;1.00
46591;PMS6003;32314;48.748;9.656;2023-04-15T18:41:35;1.00;1.00;1.00
46591;PMS6003;32314;48.748;9.656;2023-04-15T18:44:24;7.00;7.00;6.00
46591;PMS6003;32314;48.748;9.656;2023-04-15T18:47:13;1.00;1.00;1.00
46591;PMS6003;32314;48.748;9.656;2023-04-15T18:50:22;0.00;0.00;0.00
46591;PMS6003;32314;48.748;9.656;2023-04-15T18:53:11;2.67;1.00;1.00
46591;PMS6003;32314;48.748;9.656;2023-04-15T18:56:01;0.00;0.00;0.00
46591;PMS6003;32314;48.748;9.656;2023-04-15T18:58:57;0.00;0.00;0.00
46591;PMS6003;32314;48.748;9.656;2023-04-15T19:02:21;4.00;3.00;1.00
46591;PMS6003;32314;48.748;9.656;2023-04-15T19:05:15;1.67;1.67;1.00
46591;PMS6003;32314;48.748;9.656;2023-04-15T19:08:04;0.00;0.00;0.00
46591;PMS6003;32314;48.748;9.656;2023-04-15T19:10:58;0.00;0.00;0.00
46591;PMS6003;32314;48.748;9.656;2023-04-15T19:14:02;1.00;0.00;0.00
46591;PMS6003;32314;48.748;9.656;2023-04-15T19:16:57;0.00;0.00;0.00
46591;PMS6003;32314;48.748;9.656;2023-04-15T19:25:09;3.67;0.00;0.00
46591;PMS6003;32314;48.748;9.656;2023-04-15T19:28:06;5.00;3.00;3.00
46591;PMS6003;32314;48.748;9.656;2023-04-15T19:31:14;0.00;0.00;0.00
46591;PMS6003;32314;48.748;9.656;2023-04-15T19:34:06;0.00;0.00;0.00
46591;PMS6003;32314;48.748;9.656;2023-04-15T19:36:55;0.00;0.00;0.00
46591;PMS6003;32314;48.748;9.656;2023-04-15T19:39:46;2.00;1.00;1.00
46591;PMS6003;32314;48.748;9.656;2023-04-15T19:42:45;7.00;7.00;4.00
46591;PMS6003;32314;48.748;9.656;2023-04-15T19:45:36;1.67;1.67;1.00
46591;PMS6003;32314;48.748;9.656;2023-04-15T19:48:23;1.00;1.00;1.00
46591;PMS6003;32314;48.748;9.656;2023-04-15T19:51:14;8.33;8.33;6.00
46591;PMS6003;32314;48.748;9.656;2023-04-15T19:54:06;3.00;1.00;1.00
46591;PMS6003;32314;48.748;9.656;2023-04-15T19:57:00;0.33;0.33;0.33
46591;PMS6003;32314;48.748;9.656;2023-04-15T19:59:46;0.00;0.00;0.00
46591;PMS6003;32314;48.748;9.656;2023-04-15T20:02:35;1.00;1.00;1.00
46591;PMS6003;32314;48.748;9.656;2023-04-15T20:05:21;1.00;1.00;1.00
46591;PMS6003;32314;48.748;9.656;2023-04-15T20:08:09;0.67;0.67;0.67
46591;PMS6003;32314;48.748;9.656;2023-04-15T20:10:55;1.00;1.00;1.00
46591;PMS6003;32314;48.748;9.656;2023-04-15T20:13:41;1.00;1.00;1.00
46591;PMS6003;32314;48.748;9.656;2023-04-15T20:16:35;1.00;1.00;1.00
46591;PMS6003;32314;48.748;9.656;2023-04-15T20:19:26;0.67;0.67;0.33
46591;PMS6003;32314;48.748;9.656;2023-04-15T20:22:17;0.00;0.00;0.00
46591;PMS6003;32314;48.748;9.656;2023-04-15T20:25:07;0.00;0.00;0.00
46591;PMS6003;32314;48.748;9.656;2023-04-15T20:27:56;0.00;0.00;0.00
46591;PMS6003;32314;48.748;9.656;2023-04-15T20:30:45;3.00;1.00;0.00
46591;PMS6003;32314;48.748;9.656;2023-04-15T20:33:31;1.00;1.00;1.00
46591;PMS6003;32314;48.748;9.656;2023-04-15T20:36:29;4.00;3.00;1.00
46591;PMS6003;32314;48.748;9.656;2023-04-15T20:42:20;5.33;3.00;3.00
46591;PMS6003;32314;48.748;9.656;2023-04-15T20:45:15;3.00;2.33;1.00
46591;PMS6003;32314;48.748;9.656;2023-04-15T20:48:22;0.67;0.67;0.67
46591;PMS6003;32314;48.748;9.656;2023-04-15T20:51:10;3.67;1.00;1.00
46591;PMS6003;32314;48.748;9.656;2023-04-15T20:53:56;7.00;3.00;3.00
46591;PMS6003;32314;48.748;9.656;2023-04-15T20:56:50;2.00;0.00;0.00
46591;PMS6003;32314;48.748;9.656;2023-04-15T20:59:43;1.00;1.00;1.00
46591;PMS6003;32314;48.748;9.656;2023-04-15T21:02:31;3.00;0.33;0.00
46591;PMS6003;32314;48.748;9.656;2023-04-15T21:05:41;0.33;0.33;0.00
46591;PMS6003;32314;48.748;9.656;2023-04-15T21:08:27;1.00;1.00;0.67
46591;PMS6003;32314;48.748;9.656;2023-04-15T21:11:24;3.00;1.00;0.00
46591;PMS6003;32314;48.748;9.656;2023-04-15T21:14:10;0.00;0.00;0.00
46591;PMS6003;32314;48.748;9.656;2023-04-15T21:17:20;0.67;0.67;0.00
46591;PMS6003;32314;48.748;9.656;2023-04-15T21:20:25;0.67;0.67;0.00
46591;PMS6003;32314;48.748;9.656;2023-04-15T21:23:14;0.33;0.33;0.33
46591;PMS6003;32314;48.748;9.656;2023-04-15T21:26:12;3.00;0.00;0.00
46591;PMS6003;32314;48.748;9.656;2023-04-15T21:29:04;1.00;1.00;1.00
46591;PMS6003;32314;48.748;9.656;2023-04-15T21:31:57;3.67;3.67;3.67
46591;PMS6003;32314;48.748;9.656;2023-04-15T21:34:49;4.00;4.00;3.00
46591;PMS6003;32314;48.748;9.656;2023-04-15T21:37:43;6.00;4.00;3.00
46591;PMS6003;32314;48.748;9.656;2023-04-15T21:40:30;1.00;1.00;1.00
46591;PMS6003;32314;48.748;9.656;2023-04-15T21:43:22;0.00;0.00;0.00